sensor_id;sensor_type;location;lat;lon;timestamp;pressure;altitude;pressure_sealevel;temperature;humidity
51468;BME280;37545;45.302;-122.946;2023-02-15T00:01:10;101743.69;;;8.10;62.08
51468;BME280;37545;45.302;-122.946;2023-02-15T00:03:39;101749.94;;;7.99;63.02
51468;BME280;37545;45.302;-122.946;2023-02-15T00:06:08;101733.81;;;7.87;64.98
51468;BME280;37545;45.302;-122.946;2023-02-15T00:08:36;101760.44;;;7.87;64.09
51468;BME280;37545;45.302;-122.946;2023-02-15T00:11:06;101761.00;;;7.82;63.77
51468;BME280;37545;45.302;-122.946;2023-02-15T00:13:35;101760.53;;;7.74;63.56
51468;BME280;37545;45.302;-122.946;2023-02-15T00:16:08;101769.25;;;7.76;65.33
51468;BME280;37545;45.302;-122.946;2023-02-15T00:18:38;101765.81;;;7.75;65.84
51468;BME280;37545;45.302;-122.946;2023-02-15T00:21:08;101772.53;;;7.73;64.24
51468;BME280;37545;45.302;-122.946;2023-02-15T00:23:37;101773.25;;;7.71;64.19
51468;BME280;37545;45.302;-122.946;2023-02-15T00:26:08;101776.56;;;7.68;63.73
51468;BME280;37545;45.302;-122.946;2023-02-15T00:28:38;101780.28;;;7.73;65.89
51468;BME280;37545;45.302;-122.946;2023-02-15T00:31:09;101780.38;;;7.75;63.45
51468;BME280;37545;45.302;-122.946;2023-02-15T00:33:38;101786.03;;;7.69;65.46
51468;BME280;37545;45.302;-122.946;2023-02-15T00:36:08;101790.88;;;7.63;65.45
51468;BME280;37545;45.302;-122.946;2023-02-15T00:38:38;101794.22;;;7.62;64.55
51468;BME280;37545;45.302;-122.946;2023-02-15T00:41:07;101806.22;;;7.62;63.91
51468;BME280;37545;45.302;-122.946;2023-02-15T00:43:37;101805.34;;;7.61;64.72
51468;BME280;37545;45.302;-122.946;2023-02-15T00:46:05;101802.56;;;7.58;66.58
51468;BME280;37545;45.302;-122.946;2023-02-15T00:48:36;101804.09;;;7.54;65.86
51468;BME280;37545;45.302;-122.946;2023-02-15T00:51:04;101801.50;;;7.54;66.16
51468;BME280;37545;45.302;-122.946;2023-02-15T00:53:33;101812.31;;;7.49;68.79
51468;BME280;37545;45.302;-122.946;2023-02-15T00:56:01;101816.25;;;7.42;68.00
51468;BME280;37545;45.302;-122.946;2023-02-15T00:58:30;101817.38;;;7.32;68.91
51468;BME280;37545;45.302;-122.946;2023-02-15T01:01:04;101809.22;;;7.25;68.57
51468;BME280;37545;45.302;-122.946;2023-02-15T01:03:35;101819.94;;;7.32;69.21
51468;BME280;37545;45.302;-122.946;2023-02-15T01:06:04;101821.53;;;7.30;68.86
51468;BME280;37545;45.302;-122.946;2023-02-15T01:08:33;101827.50;;;7.29;68.52
51468;BME280;37545;45.302;-122.946;2023-02-15T01:11:10;101829.38;;;7.32;68.48
51468;BME280;37545;45.302;-122.946;2023-02-15T01:13:39;101827.78;;;7.34;68.51
51468;BME280;37545;45.302;-122.946;2023-02-15T01:16:17;101831.44;;;7.38;67.91
51468;BME280;37545;45.302;-122.946;2023-02-15T01:18:48;101833.19;;;7.39;67.22
51468;BME280;37545;45.302;-122.946;2023-02-15T01:21:19;101834.78;;;7.37;66.62
51468;BME280;37545;45.302;-122.946;2023-02-15T01:23:49;101832.38;;;7.25;67.14
51468;BME280;37545;45.302;-122.946;2023-02-15T01:26:17;101855.22;;;7.33;67.01
51468;BME280;37545;45.302;-122.946;2023-02-15T01:28:46;101847.38;;;7.32;66.87
51468;BME280;37545;45.302;-122.946;2023-02-15T01:31:17;101853.34;;;7.31;67.05
51468;BME280;37545;45.302;-122.946;2023-02-15T01:33:48;101855.81;;;7.29;66.58
51468;BME280;37545;45.302;-122.946;2023-02-15T01:36:16;101860.78;;;7.26;66.76
51468;BME280;37545;45.302;-122.946;2023-02-15T01:38:45;101861.41;;;7.22;66.36
51468;BME280;37545;45.302;-122.946;2023-02-15T01:41:14;101863.75;;;7.19;66.15
51468;BME280;37545;45.302;-122.946;2023-02-15T01:43:51;101861.81;;;7.15;66.40
51468;BME280;37545;45.302;-122.946;2023-02-15T01:46:24;101865.97;;;7.13;66.70
51468;BME280;37545;45.302;-122.946;2023-02-15T01:48:57;101868.56;;;7.13;66.57
51468;BME280;37545;45.302;-122.946;2023-02-15T01:51:30;101864.81;;;7.08;67.43
51468;BME280;37545;45.302;-122.946;2023-02-15T01:54:04;101862.75;;;7.02;68.99
51468;BME280;37545;45.302;-122.946;2023-02-15T01:56:36;101872.75;;;6.98;70.05
51468;BME280;37545;45.302;-122.946;2023-02-15T01:59:07;101881.59;;;6.88;70.77
51468;BME280;37545;45.302;-122.946;2023-02-15T02:01:43;101874.06;;;6.78;71.68
51468;BME280;37545;45.302;-122.946;2023-02-15T02:04:25;101886.66;;;6.73;71.80
51468;BME280;37545;45.302;-122.946;2023-02-15T02:06:58;101884.06;;;6.73;70.77
51468;BME280;37545;45.302;-122.946;2023-02-15T02:09:27;101893.00;;;6.78;69.32
51468;BME280;37545;45.302;-122.946;2023-02-15T02:11:57;101893.78;;;6.77;70.39
51468;BME280;37545;45.302;-122.946;2023-02-15T02:14:26;101894.19;;;6.70;72.02
51468;BME280;37545;45.302;-122.946;2023-02-15T02:16:58;101905.47;;;6.59;69.99
51468;BME280;37545;45.302;-122.946;2023-02-15T02:20:14;101907.84;;;6.56;75.94
51468;BME280;37545;45.302;-122.946;2023-02-15T02:23:05;101911.13;;;6.53;81.06
51468;BME280;37545;45.302;-122.946;2023-02-15T02:32:13;101915.75;;;6.45;79.17
51468;BME280;37545;45.302;-122.946;2023-02-15T02:34:52;101908.84;;;6.44;79.79
51468;BME280;37545;45.302;-122.946;2023-02-15T02:37:27;101904.28;;;6.40;79.26
51468;BME280;37545;45.302;-122.946;2023-02-15T02:40:04;101910.31;;;6.41;79.18
51468;BME280;37545;45.302;-122.946;2023-02-15T02:42:40;101924.03;;;6.41;80.58
51468;BME280;37545;45.302;-122.946;2023-02-15T02:45:15;101933.44;;;6.41;81.46
51468;BME280;37545;45.302;-122.946;2023-02-15T02:47:48;101927.25;;;6.37;81.08
51468;BME280;37545;45.302;-122.946;2023-02-15T02:50:23;101947.28;;;6.43;80.41
51468;BME280;37545;45.302;-122.946;2023-02-15T02:52:53;101946.59;;;6.45;80.23
51468;BME280;37545;45.302;-122.946;2023-02-15T02:55:24;101950.97;;;6.46;80.77
51468;BME280;37545;45.302;-122.946;2023-02-15T02:57:57;101945.72;;;6.45;81.17
51468;BME280;37545;45.302;-122.946;2023-02-15T03:00:31;101956.69;;;6.42;79.84
51468;BME280;37545;45.302;-122.946;2023-02-15T03:03:05;101955.13;;;6.44;79.71
51468;BME280;37545;45.302;-122.946;2023-02-15T03:05:41;101957.00;;;6.47;80.14
51468;BME280;37545;45.302;-122.946;2023-02-15T03:08:13;101962.84;;;6.44;79.87
51468;BME280;37545;45.302;-122.946;2023-02-15T03:10:48;101968.16;;;6.34;79.13
51468;BME280;37545;45.302;-122.946;2023-02-15T03:13:20;101950.72;;;6.17;80.12
51468;BME280;37545;45.302;-122.946;2023-02-15T03:15:50;101970.34;;;6.28;80.13
51468;BME280;37545;45.302;-122.946;2023-02-15T03:18:40;101966.75;;;6.26;79.32
51468;BME280;37545;45.302;-122.946;2023-02-15T03:21:22;101965.56;;;6.21;79.56
51468;BME280;37545;45.302;-122.946;2023-02-15T03:23:56;101967.16;;;6.19;80.78
51468;BME280;37545;45.302;-122.946;2023-02-15T03:26:29;101970.50;;;6.18;81.47
51468;BME280;37545;45.302;-122.946;2023-02-15T03:28:59;101978.44;;;6.21;82.79
51468;BME280;37545;45.302;-122.946;2023-02-15T03:31:32;101979.19;;;6.20;83.76
51468;BME280;37545;45.302;-122.946;2023-02-15T03:34:05;101983.84;;;6.12;83.07
51468;BME280;37545;45.302;-122.946;2023-02-15T03:36:42;101982.41;;;6.04;87.37
51468;BME280;37545;45.302;-122.946;2023-02-15T03:39:18;101990.63;;;5.98;87.97
51468;BME280;37545;45.302;-122.946;2023-02-15T03:41:55;101998.31;;;5.98;87.81
51468;BME280;37545;45.302;-122.946;2023-02-15T03:44:28;101999.41;;;6.02;86.72
51468;BME280;37545;45.302;-122.946;2023-02-15T03:47:02;101999.72;;;6.06;86.16
51468;BME280;37545;45.302;-122.946;2023-02-15T03:49:42;101998.53;;;6.01;85.75
51468;BME280;37545;45.302;-122.946;2023-02-15T03:52:15;102006.59;;;5.94;86.42
51468;BME280;37545;45.302;-122.946;2023-02-15T03:54:44;102013.50;;;5.95;87.80
51468;BME280;37545;45.302;-122.946;2023-02-15T03:57:16;102015.41;;;5.98;88.22
51468;BME280;37545;45.302;-122.946;2023-02-15T04:00:17;102025.00;;;6.00;88.01
51468;BME280;37545;45.302;-122.946;2023-02-15T04:03:12;102026.91;;;6.03;87.14
51468;BME280;37545;45.302;-122.946;2023-02-15T04:05:46;102026.78;;;6.01;86.78
51468;BME280;37545;45.302;-122.946;2023-02-15T04:08:16;102033.59;;;6.01;86.90
51468;BME280;37545;45.302;-122.946;2023-02-15T04:10:45;102031.91;;;6.01;86.67
51468;BME280;37545;45.302;-122.946;2023-02-15T04:13:24;102035.50;;;6.03;86.95
51468;BME280;37545;45.302;-122.946;2023-02-15T04:15:54;102041.41;;;6.02;87.27
51468;BME280;37545;45.302;-122.946;2023-02-15T04:18:33;102041.19;;;5.99;87.04
51468;BME280;37545;45.302;-122.946;2023-02-15T04:21:19;102040.72;;;5.93;88.45
51468;BME280;37545;45.302;-122.946;2023-02-15T04:24:07;102042.91;;;5.87;88.95
51468;BME280;37545;45.302;-122.946;2023-02-15T04:26:52;102043.63;;;5.73;90.03
51468;BME280;37545;45.302;-122.946;2023-02-15T04:29:22;102056.16;;;5.68;91.19
51468;BME280;37545;45.302;-122.946;2023-02-15T04:31:51;102045.53;;;5.63;92.24
51468;BME280;37545;45.302;-122.946;2023-02-15T04:34:20;102048.44;;;5.68;91.57
51468;BME280;37545;45.302;-122.946;2023-02-15T04:36:49;102050.47;;;5.60;92.32
51468;BME280;37545;45.302;-122.946;2023-02-15T04:39:19;102062.09;;;5.55;92.92
51468;BME280;37545;45.302;-122.946;2023-02-15T04:41:48;102063.78;;;5.55;92.86
51468;BME280;37545;45.302;-122.946;2023-02-15T04:44:17;102060.28;;;5.54;92.47
51468;BME280;37545;45.302;-122.946;2023-02-15T04:46:45;102065.00;;;5.48;91.76
51468;BME280;37545;45.302;-122.946;2023-02-15T04:49:14;102071.81;;;5.48;91.90
51468;BME280;37545;45.302;-122.946;2023-02-15T04:51:43;102055.66;;;5.37;92.03
51468;BME280;37545;45.302;-122.946;2023-02-15T04:54:11;102068.34;;;5.47;91.32
51468;BME280;37545;45.302;-122.946;2023-02-15T04:56:42;102077.84;;;5.48;91.37
51468;BME280;37545;45.302;-122.946;2023-02-15T04:59:11;102074.81;;;5.42;89.96
51468;BME280;37545;45.302;-122.946;2023-02-15T05:01:40;102079.84;;;5.40;89.27
51468;BME280;37545;45.302;-122.946;2023-02-15T05:04:09;102080.44;;;5.36;89.25
51468;BME280;37545;45.302;-122.946;2023-02-15T05:06:37;102084.44;;;5.33;89.69
51468;BME280;37545;45.302;-122.946;2023-02-15T05:09:06;102082.66;;;5.32;90.18
51468;BME280;37545;45.302;-122.946;2023-02-15T05:11:34;102087.69;;;5.30;90.52
51468;BME280;37545;45.302;-122.946;2023-02-15T05:14:05;102090.13;;;5.29;90.44
51468;BME280;37545;45.302;-122.946;2023-02-15T05:16:34;102098.28;;;5.23;89.80
51468;BME280;37545;45.302;-122.946;2023-02-15T05:19:02;102094.72;;;5.21;89.42
51468;BME280;37545;45.302;-122.946;2023-02-15T05:21:32;102102.09;;;5.16;88.58
51468;BME280;37545;45.302;-122.946;2023-02-15T05:24:01;102098.28;;;5.11;87.15
51468;BME280;37545;45.302;-122.946;2023-02-15T05:26:49;102108.09;;;5.05;87.58
51468;BME280;37545;45.302;-122.946;2023-02-15T05:29:36;102102.50;;;4.99;88.07
51468;BME280;37545;45.302;-122.946;2023-02-15T05:32:04;102098.59;;;4.92;88.71
51468;BME280;37545;45.302;-122.946;2023-02-15T05:34:33;102105.19;;;4.89;88.97
51468;BME280;37545;45.302;-122.946;2023-02-15T05:37:01;102094.25;;;4.79;89.32
51468;BME280;37545;45.302;-122.946;2023-02-15T05:39:30;102105.03;;;4.64;91.06
51468;BME280;37545;45.302;-122.946;2023-02-15T05:41:59;102110.00;;;4.50;92.79
51468;BME280;37545;45.302;-122.946;2023-02-15T05:44:27;102115.78;;;4.48;92.98
51468;BME280;37545;45.302;-122.946;2023-02-15T05:46:57;102112.88;;;4.43;92.25
51468;BME280;37545;45.302;-122.946;2023-02-15T05:49:26;102111.75;;;4.39;92.03
51468;BME280;37545;45.302;-122.946;2023-02-15T05:51:55;102112.06;;;4.32;91.69
51468;BME280;37545;45.302;-122.946;2023-02-15T05:54:23;102118.50;;;4.27;93.02
51468;BME280;37545;45.302;-122.946;2023-02-15T05:56:52;102114.03;;;4.25;92.36
51468;BME280;37545;45.302;-122.946;2023-02-15T05:59:21;102118.59;;;4.17;91.53
51468;BME280;37545;45.302;-122.946;2023-02-15T06:01:50;102116.31;;;4.10;91.30
51468;BME280;37545;45.302;-122.946;2023-02-15T06:04:20;102119.44;;;4.06;91.45
51468;BME280;37545;45.302;-122.946;2023-02-15T06:06:49;102130.22;;;4.02;92.20
51468;BME280;37545;45.302;-122.946;2023-02-15T06:09:17;102126.41;;;3.96;92.37
51468;BME280;37545;45.302;-122.946;2023-02-15T06:11:46;102114.22;;;3.94;92.47
51468;BME280;37545;45.302;-122.946;2023-02-15T06:14:14;102118.97;;;3.89;92.02
51468;BME280;37545;45.302;-122.946;2023-02-15T06:16:43;102115.69;;;3.80;91.95
51468;BME280;37545;45.302;-122.946;2023-02-15T06:19:11;102118.41;;;3.82;91.59
51468;BME280;37545;45.302;-122.946;2023-02-15T06:21:43;102124.97;;;3.78;91.28
51468;BME280;37545;45.302;-122.946;2023-02-15T06:24:11;102127.78;;;3.71;91.41
51468;BME280;37545;45.302;-122.946;2023-02-15T06:26:40;102122.28;;;3.66;91.77
51468;BME280;37545;45.302;-122.946;2023-02-15T06:29:09;102122.84;;;3.62;92.23
51468;BME280;37545;45.302;-122.946;2023-02-15T06:31:37;102113.13;;;3.58;91.62
51468;BME280;37545;45.302;-122.946;2023-02-15T06:34:06;102120.97;;;3.49;90.14
51468;BME280;37545;45.302;-122.946;2023-02-15T06:36:34;102120.22;;;3.40;91.90
51468;BME280;37545;45.302;-122.946;2023-02-15T06:39:04;102125.13;;;3.37;91.04
51468;BME280;37545;45.302;-122.946;2023-02-15T06:41:33;102121.91;;;3.29;92.13
51468;BME280;37545;45.302;-122.946;2023-02-15T06:44:02;102118.25;;;3.26;91.69
51468;BME280;37545;45.302;-122.946;2023-02-15T06:46:30;102123.88;;;3.22;92.09
51468;BME280;37545;45.302;-122.946;2023-02-15T06:48:59;102119.13;;;3.16;92.18
51468;BME280;37545;45.302;-122.946;2023-02-15T06:51:27;102122.09;;;3.10;92.69
51468;BME280;37545;45.302;-122.946;2023-02-15T06:53:56;102117.41;;;3.05;91.46
51468;BME280;37545;45.302;-122.946;2023-02-15T06:56:26;102122.25;;;3.02;92.74
51468;BME280;37545;45.302;-122.946;2023-02-15T06:58:55;102123.41;;;2.95;91.13
51468;BME280;37545;45.302;-122.946;2023-02-15T07:01:23;102124.06;;;2.82;91.12
51468;BME280;37545;45.302;-122.946;2023-02-15T07:03:52;102128.81;;;2.78;92.35
51468;BME280;37545;45.302;-122.946;2023-02-15T07:06:20;102125.09;;;2.74;92.02
51468;BME280;37545;45.302;-122.946;2023-02-15T07:08:49;102135.94;;;2.71;91.81
51468;BME280;37545;45.302;-122.946;2023-02-15T07:11:18;102135.44;;;2.65;92.17
51468;BME280;37545;45.302;-122.946;2023-02-15T07:14:04;102140.31;;;2.62;91.38
51468;BME280;37545;45.302;-122.946;2023-02-15T07:16:33;102140.81;;;2.58;92.18
51468;BME280;37545;45.302;-122.946;2023-02-15T07:19:02;102141.31;;;2.54;92.77
51468;BME280;37545;45.302;-122.946;2023-02-15T07:21:30;102133.25;;;2.49;92.03
51468;BME280;37545;45.302;-122.946;2023-02-15T07:23:59;102154.34;;;2.47;92.41
51468;BME280;37545;45.302;-122.946;2023-02-15T07:26:28;102153.94;;;2.42;92.85
51468;BME280;37545;45.302;-122.946;2023-02-15T07:28:56;102152.81;;;2.39;93.21
51468;BME280;37545;45.302;-122.946;2023-02-15T07:31:27;102149.97;;;2.36;93.56
51468;BME280;37545;45.302;-122.946;2023-02-15T07:33:55;102153.81;;;2.30;92.38
51468;BME280;37545;45.302;-122.946;2023-02-15T07:36:24;102161.06;;;2.26;92.36
51468;BME280;37545;45.302;-122.946;2023-02-15T07:38:53;102162.50;;;2.22;92.77
51468;BME280;37545;45.302;-122.946;2023-02-15T07:41:21;102172.41;;;2.19;93.78
51468;BME280;37545;45.302;-122.946;2023-02-15T07:43:50;102175.63;;;2.17;92.93
51468;BME280;37545;45.302;-122.946;2023-02-15T07:46:19;102181.09;;;2.11;92.00
51468;BME280;37545;45.302;-122.946;2023-02-15T07:48:49;102187.59;;;2.07;92.36
51468;BME280;37545;45.302;-122.946;2023-02-15T07:51:18;102194.84;;;2.03;93.42
51468;BME280;37545;45.302;-122.946;2023-02-15T07:53:46;102189.50;;;2.00;93.46
51468;BME280;37545;45.302;-122.946;2023-02-15T07:56:15;102194.03;;;1.94;94.60
51468;BME280;37545;45.302;-122.946;2023-02-15T07:58:44;102183.53;;;1.80;94.40
51468;BME280;37545;45.302;-122.946;2023-02-15T08:01:21;102189.13;;;1.76;95.71
51468;BME280;37545;45.302;-122.946;2023-02-15T08:03:52;102187.06;;;1.72;96.09
51468;BME280;37545;45.302;-122.946;2023-02-15T08:06:22;102181.69;;;1.69;97.01
51468;BME280;37545;45.302;-122.946;2023-02-15T08:08:51;102181.69;;;1.69;96.05
51468;BME280;37545;45.302;-122.946;2023-02-15T08:11:20;102181.69;;;1.69;95.71
51468;BME280;37545;45.302;-122.946;2023-02-15T08:14:04;102173.50;;;1.63;95.99
51468;BME280;37545;45.302;-122.946;2023-02-15T08:16:35;102183.72;;;1.63;95.38
51468;BME280;37545;45.302;-122.946;2023-02-15T08:19:07;102180.88;;;1.60;96.09
51468;BME280;37545;45.302;-122.946;2023-02-15T08:21:37;102184.81;;;1.56;94.24
51468;BME280;37545;45.302;-122.946;2023-02-15T08:24:07;102179.31;;;1.52;94.66
51468;BME280;37545;45.302;-122.946;2023-02-15T08:26:37;102188.50;;;1.50;94.03
51468;BME280;37545;45.302;-122.946;2023-02-15T08:29:06;102179.53;;;1.44;94.00
51468;BME280;37545;45.302;-122.946;2023-02-15T08:31:36;102195.59;;;1.43;93.91
51468;BME280;37545;45.302;-122.946;2023-02-15T08:34:06;102187.38;;;1.37;93.74
51468;BME280;37545;45.302;-122.946;2023-02-15T08:36:35;102188.94;;;1.35;94.36
51468;BME280;37545;45.302;-122.946;2023-02-15T08:39:05;102195.81;;;1.36;95.70
51468;BME280;37545;45.302;-122.946;2023-02-15T08:41:35;102188.78;;;1.34;95.52
51468;BME280;37545;45.302;-122.946;2023-02-15T08:44:06;102190.91;;;1.29;96.24
51468;BME280;37545;45.302;-122.946;2023-02-15T08:46:37;102190.03;;;1.29;95.36
51468;BME280;37545;45.302;-122.946;2023-02-15T08:49:07;102188.09;;;1.26;94.95
51468;BME280;37545;45.302;-122.946;2023-02-15T08:51:37;102187.81;;;1.23;95.36
51468;BME280;37545;45.302;-122.946;2023-02-15T08:54:07;102189.06;;;1.18;95.45
51468;BME280;37545;45.302;-122.946;2023-02-15T08:56:37;102194.16;;;1.18;94.77
51468;BME280;37545;45.302;-122.946;2023-02-15T08:59:10;102189.25;;;1.11;95.43
51468;BME280;37545;45.302;-122.946;2023-02-15T09:01:39;102190.91;;;1.10;94.01
51468;BME280;37545;45.302;-122.946;2023-02-15T09:04:10;102179.28;;;1.03;94.82
51468;BME280;37545;45.302;-122.946;2023-02-15T09:06:40;102194.22;;;1.09;95.78
51468;BME280;37545;45.302;-122.946;2023-02-15T09:09:10;102197.53;;;1.08;96.61
51468;BME280;37545;45.302;-122.946;2023-02-15T09:11:40;102198.28;;;1.07;96.08
51468;BME280;37545;45.302;-122.946;2023-02-15T09:14:11;102205.91;;;1.07;95.80
51468;BME280;37545;45.302;-122.946;2023-02-15T09:16:41;102201.44;;;1.04;95.57
51468;BME280;37545;45.302;-122.946;2023-02-15T09:19:12;102201.28;;;1.03;96.16
51468;BME280;37545;45.302;-122.946;2023-02-15T09:21:41;102206.28;;;1.01;96.60
51468;BME280;37545;45.302;-122.946;2023-02-15T09:24:12;102207.78;;;0.99;96.81
51468;BME280;37545;45.302;-122.946;2023-02-15T09:26:42;102204.19;;;0.97;97.49
51468;BME280;37545;45.302;-122.946;2023-02-15T09:29:12;102208.25;;;0.95;97.71
51468;BME280;37545;45.302;-122.946;2023-02-15T09:31:42;102199.16;;;0.89;97.24
51468;BME280;37545;45.302;-122.946;2023-02-15T09:34:13;102202.72;;;0.91;97.40
51468;BME280;37545;45.302;-122.946;2023-02-15T09:36:43;102187.69;;;0.75;95.53
51468;BME280;37545;45.302;-122.946;2023-02-15T09:39:14;102204.44;;;0.81;94.74
51468;BME280;37545;45.302;-122.946;2023-02-15T09:42:19;102203.41;;;0.79;94.90
51468;BME280;37545;45.302;-122.946;2023-02-15T09:45:14;102199.97;;;0.79;96.56
51468;BME280;37545;45.302;-122.946;2023-02-15T09:48:09;102198.91;;;0.77;97.47
51468;BME280;37545;45.302;-122.946;2023-02-15T09:50:53;102203.25;;;0.78;96.54
51468;BME280;37545;45.302;-122.946;2023-02-15T09:53:44;102212.56;;;0.77;95.49
51468;BME280;37545;45.302;-122.946;2023-02-15T09:56:19;102205.38;;;0.73;95.43
51468;BME280;37545;45.302;-122.946;2023-02-15T09:58:59;102213.63;;;0.71;96.61
51468;BME280;37545;45.302;-122.946;2023-02-15T10:01:36;102210.34;;;0.72;96.62
51468;BME280;37545;45.302;-122.946;2023-02-15T10:04:24;102216.06;;;0.69;96.72
51468;BME280;37545;45.302;-122.946;2023-02-15T10:07:10;102222.44;;;0.55;97.40
51468;BME280;37545;45.302;-122.946;2023-02-15T10:09:50;102226.34;;;0.43;98.57
51468;BME280;37545;45.302;-122.946;2023-02-15T10:12:37;102238.81;;;0.40;97.65
51468;BME280;37545;45.302;-122.946;2023-02-15T10:15:21;102240.47;;;0.39;98.33
51468;BME280;37545;45.302;-122.946;2023-02-15T10:18:03;102249.88;;;0.40;98.35
51468;BME280;37545;45.302;-122.946;2023-02-15T10:20:37;102236.25;;;0.40;97.47
51468;BME280;37545;45.302;-122.946;2023-02-15T10:23:33;102237.34;;;0.33;95.98
51468;BME280;37545;45.302;-122.946;2023-02-15T10:26:11;102249.44;;;0.36;95.98
51468;BME280;37545;45.302;-122.946;2023-02-15T10:28:45;102256.19;;;0.35;96.01
51468;BME280;37545;45.302;-122.946;2023-02-15T10:31:22;102257.97;;;0.36;96.18
51468;BME280;37545;45.302;-122.946;2023-02-15T10:34:07;102255.44;;;0.36;95.53
51468;BME280;37545;45.302;-122.946;2023-02-15T10:37:17;102259.63;;;0.36;96.33
51468;BME280;37545;45.302;-122.946;2023-02-15T10:40:01;102254.25;;;0.33;96.40
51468;BME280;37545;45.302;-122.946;2023-02-15T10:42:41;102260.84;;;0.31;95.97
51468;BME280;37545;45.302;-122.946;2023-02-15T10:45:22;102261.47;;;0.28;96.09
51468;BME280;37545;45.302;-122.946;2023-02-15T10:48:06;102254.72;;;0.29;95.93
51468;BME280;37545;45.302;-122.946;2023-02-15T10:50:48;102251.75;;;0.15;96.08
51468;BME280;37545;45.302;-122.946;2023-02-15T10:53:41;102257.00;;;0.17;97.25
51468;BME280;37545;45.302;-122.946;2023-02-15T10:56:20;102268.09;;;0.09;97.04
51468;BME280;37545;45.302;-122.946;2023-02-15T10:59:04;102268.41;;;0.03;98.36
51468;BME280;37545;45.302;-122.946;2023-02-15T11:01:41;102265.88;;;0.03;99.73
51468;BME280;37545;45.302;-122.946;2023-02-15T11:04:34;102253.31;;;0.05;99.82
51468;BME280;37545;45.302;-122.946;2023-02-15T11:07:12;102256.28;;;0.09;99.47
51468;BME280;37545;45.302;-122.946;2023-02-15T11:09:46;102266.59;;;0.11;99.92
51468;BME280;37545;45.302;-122.946;2023-02-15T11:12:20;102263.00;;;0.09;99.47
51468;BME280;37545;45.302;-122.946;2023-02-15T11:14:56;102274.38;;;0.12;98.57
51468;BME280;37545;45.302;-122.946;2023-02-15T11:17:33;102269.00;;;0.09;97.59
51468;BME280;37545;45.302;-122.946;2023-02-15T11:20:14;102264.22;;;0.04;96.64
51468;BME280;37545;45.302;-122.946;2023-02-15T11:22:47;102253.59;;;-0.01;97.54
51468;BME280;37545;45.302;-122.946;2023-02-15T11:25:28;102270.97;;;0.03;96.58
51468;BME280;37545;45.302;-122.946;2023-02-15T11:28:02;102258.84;;;0.01;97.47
51468;BME280;37545;45.302;-122.946;2023-02-15T11:30:40;102264.97;;;0.03;97.22
51468;BME280;37545;45.302;-122.946;2023-02-15T11:33:16;102269.03;;;0.01;96.76
51468;BME280;37545;45.302;-122.946;2023-02-15T11:35:50;102272.91;;;-0.03;95.88
51468;BME280;37545;45.302;-122.946;2023-02-15T11:38:22;102269.31;;;-0.05;95.09
51468;BME280;37545;45.302;-122.946;2023-02-15T11:40:54;102277.38;;;-0.09;94.14
51468;BME280;37545;45.302;-122.946;2023-02-15T11:43:30;102275.31;;;-0.13;94.56
51468;BME280;37545;45.302;-122.946;2023-02-15T11:46:01;102276.94;;;-0.14;94.76
51468;BME280;37545;45.302;-122.946;2023-02-15T11:48:31;102283.56;;;-0.16;94.99
51468;BME280;37545;45.302;-122.946;2023-02-15T11:51:00;102290.28;;;-0.16;95.68
51468;BME280;37545;45.302;-122.946;2023-02-15T11:53:32;102293.59;;;-0.17;94.88
51468;BME280;37545;45.302;-122.946;2023-02-15T11:56:02;102287.28;;;-0.21;94.07
51468;BME280;37545;45.302;-122.946;2023-02-15T11:58:39;102292.09;;;-0.24;93.69
51468;BME280;37545;45.302;-122.946;2023-02-15T12:01:14;102298.06;;;-0.24;95.25
51468;BME280;37545;45.302;-122.946;2023-02-15T12:03:47;102301.50;;;-0.23;96.44
51468;BME280;37545;45.302;-122.946;2023-02-15T12:06:20;102298.06;;;-0.24;96.04
51468;BME280;37545;45.302;-122.946;2023-02-15T12:08:55;102299.88;;;-0.23;96.33
51468;BME280;37545;45.302;-122.946;2023-02-15T12:11:30;102299.88;;;-0.23;96.54
51468;BME280;37545;45.302;-122.946;2023-02-15T12:14:04;102305.56;;;-0.25;96.22
51468;BME280;37545;45.302;-122.946;2023-02-15T12:16:40;102305.41;;;-0.27;97.05
51468;BME280;37545;45.302;-122.946;2023-02-15T12:19:24;102304.34;;;-0.29;96.23
51468;BME280;37545;45.302;-122.946;2023-02-15T12:21:56;102302.56;;;-0.30;96.42
51468;BME280;37545;45.302;-122.946;2023-02-15T12:24:28;102299.41;;;-0.36;96.54
51468;BME280;37545;45.302;-122.946;2023-02-15T12:27:01;102304.66;;;-0.34;96.93
51468;BME280;37545;45.302;-122.946;2023-02-15T12:29:40;102306.44;;;-0.33;96.96
51468;BME280;37545;45.302;-122.946;2023-02-15T12:32:16;102316.63;;;-0.33;97.16
51468;BME280;37545;45.302;-122.946;2023-02-15T12:34:46;102310.66;;;-0.34;97.54
51468;BME280;37545;45.302;-122.946;2023-02-15T12:37:18;102317.22;;;-0.36;97.28
51468;BME280;37545;45.302;-122.946;2023-02-15T12:39:55;102311.25;;;-0.36;98.15
51468;BME280;37545;45.302;-122.946;2023-02-15T12:42:25;102309.31;;;-0.39;96.14
51468;BME280;37545;45.302;-122.946;2023-02-15T12:44:59;102304.66;;;-0.43;97.14
51468;BME280;37545;45.302;-122.946;2023-02-15T12:47:28;102307.50;;;-0.40;97.55
51468;BME280;37545;45.302;-122.946;2023-02-15T12:50:14;102312.72;;;-0.38;97.45
51468;BME280;37545;45.302;-122.946;2023-02-15T12:53:06;102308.97;;;-0.42;96.72
51468;BME280;37545;45.302;-122.946;2023-02-15T12:55:36;102307.94;;;-0.44;95.62
51468;BME280;37545;45.302;-122.946;2023-02-15T12:58:12;102314.50;;;-0.46;94.82
51468;BME280;37545;45.302;-122.946;2023-02-15T13:00:46;102306.75;;;-0.48;95.79
51468;BME280;37545;45.302;-122.946;2023-02-15T13:03:19;102302.56;;;-0.47;96.50
51468;BME280;37545;45.302;-122.946;2023-02-15T13:05:51;102318.09;;;-0.44;96.75